sensor_id;sensor_type;location;lat;lon;timestamp;pressure;altitude;pressure_sealevel;temperature;humidity
30343;BME280;17145;49.902;8.680;'2023-03-14 00:59:40';98170;;;9;61
30343;BME280;17145;49.902;8.680;'2023-03-14 01:02:07';98170;;;9;61
30343;BME280;17145;49.902;8.680;'2023-03-14 01:04:36';98170;;;9;61
30343;BME280;17145;49.902;8.680;'2023-03-14 01:07:04';98160;;;9;61
30343;BME280;17145;49.902;8.680;'2023-03-14 01:09:31';98180;;;10;60
30343;BME280;17145;49.902;8.680;'2023-03-14 01:11:58';98180;;;10;59
30343;BME280;17145;49.902;8.680;'2023-03-14 01:14:26';98160;;;10;60
30343;BME280;17145;49.902;8.680;'2023-03-14 01:16:53';98180;;;10;59
30343;BME280;17145;49.902;8.680;'2023-03-14 01:19:20';98170;;;10;59
30343;BME280;17145;49.902;8.680;'2023-03-14 01:21:48';98160;;;9;59
30343;BME280;17145;49.902;8.680;'2023-03-14 01:24:15';98170;;;9;60
30343;BME280;17145;49.902;8.680;'2023-03-14 01:26:42';98140;;;9;60
30343;BME280;17145;49.902;8.680;'2023-03-14 01:29:10';98140;;;9;60
30343;BME280;17145;49.902;8.680;'2023-03-14 01:31:37';98150;;;9;60
30343;BME280;17145;49.902;8.680;'2023-03-14 01:34:04';98150;;;9;60
30343;BME280;17145;49.902;8.680;'2023-03-14 01:36:32';98150;;;9;60
30343;BME280;17145;49.902;8.680;'2023-03-14 01:38:59';98150;;;9;61
30343;BME280;17145;49.902;8.680;'2023-03-14 01:41:27';98140;;;9;61
30343;BME280;17145;49.902;8.680;'2023-03-14 01:43:54';98150;;;9;62
30343;BME280;17145;49.902;8.680;'2023-03-14 01:46:21';98140;;;9;62
30343;BME280;17145;49.902;8.680;'2023-03-14 01:48:49';98130;;;9;61
30343;BME280;17145;49.902;8.680;'2023-03-14 01:51:16';98130;;;9;62
30343;BME280;17145;49.902;8.680;'2023-03-14 01:53:44';98130;;;9;62
30343;BME280;17145;49.902;8.680;'2023-03-14 01:56:13';98120;;;9;62
30343;BME280;17145;49.902;8.680;'2023-03-14 01:58:40';98120;;;9;61
30343;BME280;17145;49.902;8.680;'2023-03-14 02:01:10';98130;;;9;61
30343;BME280;17145;49.902;8.680;'2023-03-14 02:03:38';98130;;;9;61
30343;BME280;17145;49.902;8.680;'2023-03-14 02:06:08';98140;;;9;60
30343;BME280;17145;49.902;8.680;'2023-03-14 02:08:36';98150;;;9;59
30343;BME280;17145;49.902;8.680;'2023-03-14 02:11:06';98140;;;9;59
30343;BME280;17145;49.902;8.680;'2023-03-14 02:13:35';98140;;;9;59
30343;BME280;17145;49.902;8.680;'2023-03-14 02:16:04';98160;;;9;59
30343;BME280;17145;49.902;8.680;'2023-03-14 02:18:31';98160;;;10;58
30343;BME280;17145;49.902;8.680;'2023-03-14 02:20:58';98170;;;9;61
30343;BME280;17145;49.902;8.680;'2023-03-14 02:23:26';98160;;;9;60
30343;BME280;17145;49.902;8.680;'2023-03-14 02:25:54';98140;;;10;59
30343;BME280;17145;49.902;8.680;'2023-03-14 02:28:21';98150;;;10;59
30343;BME280;17145;49.902;8.680;'2023-03-14 02:30:49';98140;;;10;58
30343;BME280;17145;49.902;8.680;'2023-03-14 02:33:16';98140;;;9;59
30343;BME280;17145;49.902;8.680;'2023-03-14 02:35:43';98130;;;10;58
30343;BME280;17145;49.902;8.680;'2023-03-14 02:38:11';98130;;;10;58
30343;BME280;17145;49.902;8.680;'2023-03-14 02:40:42';98120;;;9;58
30343;BME280;17145;49.902;8.680;'2023-03-14 02:45:57';98120;;;10;57
30343;BME280;17145;49.902;8.680;'2023-03-14 02:48:28';98100;;;9;59
30343;BME280;17145;49.902;8.680;'2023-03-14 02:50:55';98110;;;10;58
30343;BME280;17145;49.902;8.680;'2023-03-14 02:53:23';98090;;;10;57
30343;BME280;17145;49.902;8.680;'2023-03-14 02:55:54';98100;;;9;57
30343;BME280;17145;49.902;8.680;'2023-03-14 02:58:25';98100;;;9;58
30343;BME280;17145;49.902;8.680;'2023-03-14 03:00:53';98080;;;9;59
30343;BME280;17145;49.902;8.680;'2023-03-14 03:03:24';98070;;;10;58
30343;BME280;17145;49.902;8.680;'2023-03-14 03:05:56';98080;;;10;58
30343;BME280;17145;49.902;8.680;'2023-03-14 03:08:24';98070;;;9;59
30343;BME280;17145;49.902;8.680;'2023-03-14 03:10:51';98070;;;9;59
30343;BME280;17145;49.902;8.680;'2023-03-14 03:13:21';98070;;;9;58
30343;BME280;17145;49.902;8.680;'2023-03-14 03:15:49';98070;;;10;58
30343;BME280;17145;49.902;8.680;'2023-03-14 03:18:17';98080;;;9;58
30343;BME280;17145;49.902;8.680;'2023-03-14 03:20:52';98060;;;10;58
30343;BME280;17145;49.902;8.680;'2023-03-14 03:23:30';98060;;;10;57
30343;BME280;17145;49.902;8.680;'2023-03-14 03:26:05';98050;;;10;57
30343;BME280;17145;49.902;8.680;'2023-03-14 03:28:32';98060;;;10;57
30343;BME280;17145;49.902;8.680;'2023-03-14 03:31:00';98050;;;9;58
30343;BME280;17145;49.902;8.680;'2023-03-14 03:33:28';98060;;;10;58
30343;BME280;17145;49.902;8.680;'2023-03-14 03:35:59';98040;;;10;57
30343;BME280;17145;49.902;8.680;'2023-03-14 03:38:33';98040;;;9;58
30343;BME280;17145;49.902;8.680;'2023-03-14 03:41:01';98050;;;9;59
30343;BME280;17145;49.902;8.680;'2023-03-14 03:43:28';98040;;;9;59
30343;BME280;17145;49.902;8.680;'2023-03-14 03:45:56';98040;;;9;58
30343;BME280;17145;49.902;8.680;'2023-03-14 03:48:27';98030;;;9;58
30343;BME280;17145;49.902;8.680;'2023-03-14 03:50:58';98020;;;10;58
30343;BME280;17145;49.902;8.680;'2023-03-14 03:53:28';98010;;;9;58
30343;BME280;17145;49.902;8.680;'2023-03-14 03:55:55';98020;;;9;58
30343;BME280;17145;49.902;8.680;'2023-03-14 03:58:24';98020;;;10;57
30343;BME280;17145;49.902;8.680;'2023-03-14 04:00:51';98020;;;9;57
30343;BME280;17145;49.902;8.680;'2023-03-14 04:03:19';98020;;;10;57
30343;BME280;17145;49.902;8.680;'2023-03-14 04:05:49';98020;;;10;57
30343;BME280;17145;49.902;8.680;'2023-03-14 04:08:17';98040;;;9;58
30343;BME280;17145;49.902;8.680;'2023-03-14 04:10:45';98040;;;10;58
30343;BME280;17145;49.902;8.680;'2023-03-14 04:13:12';98040;;;10;57
30343;BME280;17145;49.902;8.680;'2023-03-14 04:15:40';98020;;;10;57
30343;BME280;17145;49.902;8.680;'2023-03-14 04:18:07';98020;;;10;58
30343;BME280;17145;49.902;8.680;'2023-03-14 04:20:35';98010;;;10;57
30343;BME280;17145;49.902;8.680;'2023-03-14 04:23:03';98020;;;10;57
30343;BME280;17145;49.902;8.680;'2023-03-14 04:25:31';98020;;;9;57
30343;BME280;17145;49.902;8.680;'2023-03-14 04:27:58';98020;;;9;58
30343;BME280;17145;49.902;8.680;'2023-03-14 04:30:26';98030;;;9;58
30343;BME280;17145;49.902;8.680;'2023-03-14 04:32:53';98010;;;9;58
30343;BME280;17145;49.902;8.680;'2023-03-14 04:35:21';98020;;;10;57
30343;BME280;17145;49.902;8.680;'2023-03-14 04:37:48';98020;;;9;57
30343;BME280;17145;49.902;8.680;'2023-03-14 04:40:16';98010;;;10;56
30343;BME280;17145;49.902;8.680;'2023-03-14 04:42:43';98000;;;10;56
30343;BME280;17145;49.902;8.680;'2023-03-14 04:45:11';97990;;;10;55
30343;BME280;17145;49.902;8.680;'2023-03-14 04:47:38';97990;;;10;56
30343;BME280;17145;49.902;8.680;'2023-03-14 04:50:07';97990;;;10;55
30343;BME280;17145;49.902;8.680;'2023-03-14 04:52:34';97990;;;10;55
30343;BME280;17145;49.902;8.680;'2023-03-14 04:55:01';97990;;;10;55
30343;BME280;17145;49.902;8.680;'2023-03-14 04:57:29';97980;;;10;55
30343;BME280;17145;49.902;8.680;'2023-03-14 04:59:56';97980;;;10;55
30343;BME280;17145;49.902;8.680;'2023-03-14 05:02:24';97980;;;10;54
30343;BME280;17145;49.902;8.680;'2023-03-14 05:04:51';97980;;;10;54
30343;BME280;17145;49.902;8.680;'2023-03-14 05:07:18';97980;;;10;55
30343;BME280;17145;49.902;8.680;'2023-03-14 05:09:46';97980;;;10;54
30343;BME280;17145;49.902;8.680;'2023-03-14 05:12:13';97980;;;10;54
30343;BME280;17145;49.902;8.680;'2023-03-14 05:14:41';97970;;;10;54
30343;BME280;17145;49.902;8.680;'2023-03-14 05:17:08';97970;;;10;53
30343;BME280;17145;49.902;8.680;'2023-03-14 05:19:35';97970;;;10;53
30343;BME280;17145;49.902;8.680;'2023-03-14 05:22:03';97970;;;10;54
30343;BME280;17145;49.902;8.680;'2023-03-14 05:24:30';97980;;;10;54
30343;BME280;17145;49.902;8.680;'2023-03-14 05:26:58';97970;;;9;56
30343;BME280;17145;49.902;8.680;'2023-03-14 05:29:25';97960;;;9;57
30343;BME280;17145;49.902;8.680;'2023-03-14 05:31:53';97970;;;9;56
30343;BME280;17145;49.902;8.680;'2023-03-14 05:34:20';97960;;;10;56
30343;BME280;17145;49.902;8.680;'2023-03-14 05:36:48';97960;;;10;56
30343;BME280;17145;49.902;8.680;'2023-03-14 05:39:15';97970;;;9;56
30343;BME280;17145;49.902;8.680;'2023-03-14 05:41:44';97960;;;10;56
30343;BME280;17145;49.902;8.680;'2023-03-14 05:44:12';97960;;;9;57
30343;BME280;17145;49.902;8.680;'2023-03-14 05:46:39';97950;;;9;57
30343;BME280;17145;49.902;8.680;'2023-03-14 05:49:06';97960;;;9;57
30343;BME280;17145;49.902;8.680;'2023-03-14 05:51:34';97950;;;10;56
30343;BME280;17145;49.902;8.680;'2023-03-14 05:54:01';97950;;;10;56
30343;BME280;17145;49.902;8.680;'2023-03-14 05:56:28';97950;;;9;57
30343;BME280;17145;49.902;8.680;'2023-03-14 05:58:56';97950;;;9;57
30343;BME280;17145;49.902;8.680;'2023-03-14 06:01:23';97940;;;9;57
30343;BME280;17145;49.902;8.680;'2023-03-14 06:03:50';97940;;;10;56
30343;BME280;17145;49.902;8.680;'2023-03-14 06:06:18';97930;;;10;56
30343;BME280;17145;49.902;8.680;'2023-03-14 06:08:46';97930;;;9;57
30343;BME280;17145;49.902;8.680;'2023-03-14 06:11:13';97910;;;9;57
30343;BME280;17145;49.902;8.680;'2023-03-14 06:13:41';97900;;;9;57
30343;BME280;17145;49.902;8.680;'2023-03-14 06:16:10';97910;;;9;57
30343;BME280;17145;49.902;8.680;'2023-03-14 06:18:38';97900;;;10;56
30343;BME280;17145;49.902;8.680;'2023-03-14 06:21:06';97900;;;10;56
30343;BME280;17145;49.902;8.680;'2023-03-14 06:23:33';97900;;;10;56
30343;BME280;17145;49.902;8.680;'2023-03-14 06:26:01';97900;;;9;56
30343;BME280;17145;49.902;8.680;'2023-03-14 06:28:28';97900;;;10;55
30343;BME280;17145;49.902;8.680;'2023-03-14 06:30:56';97910;;;9;56
30343;BME280;17145;49.902;8.680;'2023-03-14 06:33:23';97910;;;10;56
30343;BME280;17145;49.902;8.680;'2023-03-14 06:35:51';97900;;;10;55
30343;BME280;17145;49.902;8.680;'2023-03-14 06:38:18';97910;;;9;54
30343;BME280;17145;49.902;8.680;'2023-03-14 06:40:46';97910;;;10;54
30343;BME280;17145;49.902;8.680;'2023-03-14 06:43:13';97910;;;10;54
30343;BME280;17145;49.902;8.680;'2023-03-14 06:45:41';97920;;;10;54
30343;BME280;17145;49.902;8.680;'2023-03-14 06:48:09';97920;;;10;55
30343;BME280;17145;49.902;8.680;'2023-03-14 06:50:36';97910;;;9;55
30343;BME280;17145;49.902;8.680;'2023-03-14 06:53:04';97900;;;10;55
30343;BME280;17145;49.902;8.680;'2023-03-14 06:55:31';97900;;;9;54
30343;BME280;17145;49.902;8.680;'2023-03-14 06:57:59';97910;;;9;54
30343;BME280;17145;49.902;8.680;'2023-03-14 07:00:27';97900;;;9;55
30343;BME280;17145;49.902;8.680;'2023-03-14 07:02:54';97900;;;9;55
30343;BME280;17145;49.902;8.680;'2023-03-14 07:05:21';97910;;;10;55
30343;BME280;17145;49.902;8.680;'2023-03-14 07:07:49';97900;;;9;54
30343;BME280;17145;49.902;8.680;'2023-03-14 07:10:16';97900;;;9;55
30343;BME280;17145;49.902;8.680;'2023-03-14 07:12:43';97910;;;9;54
30343;BME280;17145;49.902;8.680;'2023-03-14 07:15:11';97910;;;10;54
30343;BME280;17145;49.902;8.680;'2023-03-14 07:17:39';97910;;;10;55
30343;BME280;17145;49.902;8.680;'2023-03-14 07:20:07';97900;;;10;54
30343;BME280;17145;49.902;8.680;'2023-03-14 07:22:35';97900;;;9;54
30343;BME280;17145;49.902;8.680;'2023-03-14 07:25:02';97890;;;10;54
30343;BME280;17145;49.902;8.680;'2023-03-14 07:27:30';97880;;;10;54
30343;BME280;17145;49.902;8.680;'2023-03-14 07:29:57';97900;;;10;53
30343;BME280;17145;49.902;8.680;'2023-03-14 07:32:25';97880;;;9;53
30343;BME280;17145;49.902;8.680;'2023-03-14 07:34:52';97890;;;9;54
30343;BME280;17145;49.902;8.680;'2023-03-14 07:37:19';97880;;;10;53
30343;BME280;17145;49.902;8.680;'2023-03-14 07:39:47';97890;;;9;53
30343;BME280;17145;49.902;8.680;'2023-03-14 07:42:14';97890;;;9;54
30343;BME280;17145;49.902;8.680;'2023-03-14 07:44:42';97890;;;10;54
30343;BME280;17145;49.902;8.680;'2023-03-14 07:47:10';97890;;;9;54
30343;BME280;17145;49.902;8.680;'2023-03-14 07:49:37';97890;;;9;53
30343;BME280;17145;49.902;8.680;'2023-03-14 07:52:05';97890;;;9;53
30343;BME280;17145;49.902;8.680;'2023-03-14 07:54:33';97890;;;10;53
30343;BME280;17145;49.902;8.680;'2023-03-14 07:57:01';97890;;;9;53
30343;BME280;17145;49.902;8.680;'2023-03-14 07:59:28';97890;;;9;53
30343;BME280;17145;49.902;8.680;'2023-03-14 08:01:56';97890;;;9;53
30343;BME280;17145;49.902;8.680;'2023-03-14 08:04:23';97900;;;10;52
30343;BME280;17145;49.902;8.680;'2023-03-14 08:06:51';97900;;;10;52
30343;BME280;17145;49.902;8.680;'2023-03-14 08:09:19';97900;;;10;52
30343;BME280;17145;49.902;8.680;'2023-03-14 08:11:46';97900;;;10;53
30343;BME280;17145;49.902;8.680;'2023-03-14 08:14:14';97900;;;9;53
30343;BME280;17145;49.902;8.680;'2023-03-14 08:16:41';97890;;;10;52
30343;BME280;17145;49.902;8.680;'2023-03-14 08:19:08';97900;;;10;52
30343;BME280;17145;49.902;8.680;'2023-03-14 08:21:36';97900;;;10;52
30343;BME280;17145;49.902;8.680;'2023-03-14 08:24:04';97890;;;10;52
30343;BME280;17145;49.902;8.680;'2023-03-14 08:26:32';97900;;;10;52
30343;BME280;17145;49.902;8.680;'2023-03-14 08:29:00';97900;;;10;51
30343;BME280;17145;49.902;8.680;'2023-03-14 08:31:27';97900;;;10;51
30343;BME280;17145;49.902;8.680;'2023-03-14 08:33:55';97900;;;10;51
30343;BME280;17145;49.902;8.680;'2023-03-14 08:36:23';97910;;;10;50
30343;BME280;17145;49.902;8.680;'2023-03-14 08:38:50';97900;;;10;51
30343;BME280;17145;49.902;8.680;'2023-03-14 08:41:18';97900;;;10;51
30343;BME280;17145;49.902;8.680;'2023-03-14 08:43:45';97910;;;10;51
30343;BME280;17145;49.902;8.680;'2023-03-14 08:46:13';97920;;;10;51
30343;BME280;17145;49.902;8.680;'2023-03-14 08:48:40';97920;;;10;51
30343;BME280;17145;49.902;8.680;'2023-03-14 08:51:08';97910;;;10;51
30343;BME280;17145;49.902;8.680;'2023-03-14 08:53:36';97910;;;10;51
30343;BME280;17145;49.902;8.680;'2023-03-14 08:56:03';97910;;;10;50
30343;BME280;17145;49.902;8.680;'2023-03-14 08:58:31';97910;;;10;50
30343;BME280;17145;49.902;8.680;'2023-03-14 09:00:59';97910;;;10;50
30343;BME280;17145;49.902;8.680;'2023-03-14 09:03:26';97910;;;10;50
30343;BME280;17145;49.902;8.680;'2023-03-14 09:05:54';97910;;;10;50
30343;BME280;17145;49.902;8.680;'2023-03-14 09:08:21';97910;;;10;50
30343;BME280;17145;49.902;8.680;'2023-03-14 09:10:49';97910;;;10;50
30343;BME280;17145;49.902;8.680;'2023-03-14 09:13:16';97900;;;10;50
30343;BME280;17145;49.902;8.680;'2023-03-14 09:15:48';97900;;;10;50
30343;BME280;17145;49.902;8.680;'2023-03-14 09:18:16';97910;;;10;50
30343;BME280;17145;49.902;8.680;'2023-03-14 09:20:43';97900;;;9;52
30343;BME280;17145;49.902;8.680;'2023-03-14 09:23:11';97900;;;10;52
30343;BME280;17145;49.902;8.680;'2023-03-14 09:25:38';97910;;;9;52
30343;BME280;17145;49.902;8.680;'2023-03-14 09:28:06';97900;;;10;52
30343;BME280;17145;49.902;8.680;'2023-03-14 09:30:33';97910;;;9;52
30343;BME280;17145;49.902;8.680;'2023-03-14 09:33:00';97900;;;9;53
30343;BME280;17145;49.902;8.680;'2023-03-14 09:35:28';97960;;;8;55
30343;BME280;17145;49.902;8.680;'2023-03-14 09:37:55';97910;;;10;54
30343;BME280;17145;49.902;8.680;'2023-03-14 09:40:23';97910;;;9;53
30343;BME280;17145;49.902;8.680;'2023-03-14 09:42:50';97910;;;10;53
30343;BME280;17145;49.902;8.680;'2023-03-14 09:45:18';97910;;;9;53
30343;BME280;17145;49.902;8.680;'2023-03-14 09:47:46';97900;;;10;52
30343;BME280;17145;49.902;8.680;'2023-03-14 09:50:13';97900;;;10;51
30343;BME280;17145;49.902;8.680;'2023-03-14 09:52:41';97910;;;11;51
30343;BME280;17145;49.902;8.680;'2023-03-14 09:55:09';97920;;;11;50
30343;BME280;17145;49.902;8.680;'2023-03-14 09:57:37';97920;;;10;51
30343;BME280;17145;49.902;8.680;'2023-03-14 10:00:06';97920;;;10;52
30343;BME280;17145;49.902;8.680;'2023-03-14 10:02:33';97920;;;10;52
30343;BME280;17145;49.902;8.680;'2023-03-14 10:05:00';97930;;;10;51
30343;BME280;17145;49.902;8.680;'2023-03-14 10:07:28';97920;;;10;51
30343;BME280;17145;49.902;8.680;'2023-03-14 10:09:56';97920;;;10;52
30343;BME280;17145;49.902;8.680;'2023-03-14 10:12:23';97920;;;10;52
30343;BME280;17145;49.902;8.680;'2023-03-14 10:14:51';97930;;;10;53
30343;BME280;17145;49.902;8.680;'2023-03-14 10:17:18';97920;;;10;52
30343;BME280;17145;49.902;8.680;'2023-03-14 10:19:45';97930;;;10;53
30343;BME280;17145;49.902;8.680;'2023-03-14 10:22:13';97900;;;10;52
30343;BME280;17145;49.902;8.680;'2023-03-14 10:24:41';97920;;;10;52
30343;BME280;17145;49.902;8.680;'2023-03-14 10:27:08';97910;;;10;51
30343;BME280;17145;49.902;8.680;'2023-03-14 10:29:36';97910;;;11;51
30343;BME280;17145;49.902;8.680;'2023-03-14 10:32:03';97910;;;11;51
30343;BME280;17145;49.902;8.680;'2023-03-14 10:34:31';97910;;;11;50
30343;BME280;17145;49.902;8.680;'2023-03-14 10:36:59';97920;;;11;50
30343;BME280;17145;49.902;8.680;'2023-03-14 10:39:26';97910;;;11;51
30343;BME280;17145;49.902;8.680;'2023-03-14 10:42:01';97910;;;11;50
30343;BME280;17145;49.902;8.680;'2023-03-14 10:44:31';97920;;;11;50
30343;BME280;17145;49.902;8.680;'2023-03-14 10:47:02';97920;;;10;51
30343;BME280;17145;49.902;8.680;'2023-03-14 10:49:33';97930;;;11;51
30343;BME280;17145;49.902;8.680;'2023-03-14 10:52:06';97940;;;11;51
30343;BME280;17145;49.902;8.680;'2023-03-14 10:54:37';97930;;;10;52
30343;BME280;17145;49.902;8.680;'2023-03-14 10:57:10';97920;;;10;52
30343;BME280;17145;49.902;8.680;'2023-03-14 10:59:41';97920;;;11;52
30343;BME280;17145;49.902;8.680;'2023-03-14 11:02:17';97920;;;11;51
30343;BME280;17145;49.902;8.680;'2023-03-14 11:04:45';97930;;;11;51
30343;BME280;17145;49.902;8.680;'2023-03-14 11:07:16';97920;;;11;51
30343;BME280;17145;49.902;8.680;'2023-03-14 11:09:47';97920;;;11;50
30343;BME280;17145;49.902;8.680;'2023-03-14 11:12:15';97920;;;11;51
30343;BME280;17145;49.902;8.680;'2023-03-14 11:14:49';97920;;;11;50
30343;BME280;17145;49.902;8.680;'2023-03-14 11:17:18';97920;;;11;50
30343;BME280;17145;49.902;8.680;'2023-03-14 11:19:52';97920;;;11;51
30343;BME280;17145;49.902;8.680;'2023-03-14 11:22:21';97920;;;10;52
30343;BME280;17145;49.902;8.680;'2023-03-14 11:24:53';97920;;;11;51
30343;BME280;17145;49.902;8.680;'2023-03-14 11:27:27';97920;;;10;52
30343;BME280;17145;49.902;8.680;'2023-03-14 11:29:57';97920;;;10;52
30343;BME280;17145;49.902;8.680;'2023-03-14 11:32:32';97920;;;10;52
30343;BME280;17145;49.902;8.680;'2023-03-14 11:35:08';97910;;;11;51
30343;BME280;17145;49.902;8.680;'2023-03-14 11:37:40';97920;;;11;52
30343;BME280;17145;49.902;8.680;'2023-03-14 11:40:14';97910;;;11;51
30343;BME280;17145;49.902;8.680;'2023-03-14 11:45:20';97910;;;11;51
30343;BME280;17145;49.902;8.680;'2023-03-14 11:47:49';97900;;;11;51
30343;BME280;17145;49.902;8.680;'2023-03-14 11:50:25';97900;;;11;53
30343;BME280;17145;49.902;8.680;'2023-03-14 11:52:54';97910;;;11;53
30343;BME280;17145;49.902;8.680;'2023-03-14 11:55:24';97910;;;11;53
30343;BME280;17145;49.902;8.680;'2023-03-14 11:57:52';97910;;;10;54
30343;BME280;17145;49.902;8.680;'2023-03-14 12:00:22';97910;;;11;53
30343;BME280;17145;49.902;8.680;'2023-03-14 12:03:06';97910;;;10;55
30343;BME280;17145;49.902;8.680;'2023-03-14 12:05:41';97910;;;11;54
30343;BME280;17145;49.902;8.680;'2023-03-14 12:08:15';97910;;;11;54
30343;BME280;17145;49.902;8.680;'2023-03-14 12:10:47';97900;;;10;55
30343;BME280;17145;49.902;8.680;'2023-03-14 12:13:22';97900;;;10;55
30343;BME280;17145;49.902;8.680;'2023-03-14 12:15:59';97920;;;10;54
30343;BME280;17145;49.902;8.680;'2023-03-14 12:18:41';97920;;;10;55
30343;BME280;17145;49.902;8.680;'2023-03-14 12:21:13';97910;;;10;57
30343;BME280;17145;49.902;8.680;'2023-03-14 12:23:50';97920;;;9;58
30343;BME280;17145;49.902;8.680;'2023-03-14 12:26:29';97920;;;10;58
30343;BME280;17145;49.902;8.680;'2023-03-14 12:28:58';97920;;;10;57
30343;BME280;17145;49.902;8.680;'2023-03-14 12:31:28';97920;;;11;57
30343;BME280;17145;49.902;8.680;'2023-03-14 12:34:00';97920;;;10;57
30343;BME280;17145;49.902;8.680;'2023-03-14 12:36:36';97920;;;10;57
30343;BME280;17145;49.902;8.680;'2023-03-14 12:39:11';97920;;;10;57
30343;BME280;17145;49.902;8.680;'2023-03-14 12:41:40';97930;;;10;59
30343;BME280;17145;49.902;8.680;'2023-03-14 12:44:17';97930;;;10;58
30343;BME280;17145;49.902;8.680;'2023-03-14 12:46:52';97920;;;10;58
30343;BME280;17145;49.902;8.680;'2023-03-14 12:49:31';97920;;;10;57
30343;BME280;17145;49.902;8.680;'2023-03-14 12:52:02';97930;;;10;57
30343;BME280;17145;49.902;8.680;'2023-03-14 12:54:38';97920;;;10;57
30343;BME280;17145;49.902;8.680;'2023-03-14 12:57:11';97930;;;10;57
30343;BME280;17145;49.902;8.680;'2023-03-14 12:59:49';97930;;;11;57
30343;BME280;17145;49.902;8.680;'2023-03-14 13:02:25';97940;;;11;57
30343;BME280;17145;49.902;8.680;'2023-03-14 13:05:05';97940;;;11;56
30343;BME280;17145;49.902;8.680;'2023-03-14 13:07:42';98020;;;10;61
30343;BME280;17145;49.902;8.680;'2023-03-14 13:10:10';98020;;;9;65
30343;BME280;17145;49.902;8.680;'2023-03-14 13:12:38';98010;;;9;65
30343;BME280;17145;49.902;8.680;'2023-03-14 13:15:15';98020;;;8;63
30343;BME280;17145;49.902;8.680;'2023-03-14 13:17:42';98030;;;9;62
30343;BME280;17145;49.902;8.680;'2023-03-14 13:20:17';98060;;;9;60
30343;BME280;17145;49.902;8.680;'2023-03-14 13:22:47';98090;;;8;59
30343;BME280;17145;49.902;8.680;'2023-03-14 13:25:17';98100;;;8;59
30343;BME280;17145;49.902;8.680;'2023-03-14 13:27:49';98140;;;8;59
30343;BME280;17145;49.902;8.680;'2023-03-14 13:33:11';98160;;;8;58
30343;BME280;17145;49.902;8.680;'2023-03-14 13:35:41';98160;;;7;55
30343;BME280;17145;49.902;8.680;'2023-03-14 13:38:13';98190;;;8;55
30343;BME280;17145;49.902;8.680;'2023-03-14 13:40:52';98180;;;8;54
30343;BME280;17145;49.902;8.680;'2023-03-14 13:43:26';98180;;;8;53
30343;BME280;17145;49.902;8.680;'2023-03-14 13:46:09';98200;;;8;53
30343;BME280;17145;49.902;8.680;'2023-03-14 13:48:39';98210;;;9;53
30343;BME280;17145;49.902;8.680;'2023-03-14 13:51:13';98220;;;8;52
30343;BME280;17145;49.902;8.680;'2023-03-14 13:53:57';98230;;;9;52
30343;BME280;17145;49.902;8.680;'2023-03-14 13:56:32';98240;;;8;51
30343;BME280;17145;49.902;8.680;'2023-03-14 13:59:18';98250;;;9;50
30343;BME280;17145;49.902;8.680;'2023-03-14 14:01:53';98250;;;9;49
30343;BME280;17145;49.902;8.680;'2023-03-14 14:04:31';98270;;;9;49
30343;BME280;17145;49.902;8.680;'2023-03-14 14:09:47';98280;;;8;50
30343;BME280;17145;49.902;8.680;'2023-03-14 14:12:18';98290;;;8;50
30343;BME280;17145;49.902;8.680;'2023-03-14 14:14:49';98320;;;8;51
30343;BME280;17145;49.902;8.680;'2023-03-14 14:17:26';98310;;;7;52
30343;BME280;17145;49.902;8.680;'2023-03-14 14:19:57';98320;;;8;52
30343;BME280;17145;49.902;8.680;'2023-03-14 14:22:27';98330;;;8;53
30343;BME280;17145;49.902;8.680;'2023-03-14 14:25:00';98350;;;8;53
30343;BME280;17145;49.902;8.680;'2023-03-14 14:27:31';98340;;;8;54
30343;BME280;17145;49.902;8.680;'2023-03-14 14:30:13';98360;;;8;54
30343;BME280;17145;49.902;8.680;'2023-03-14 14:32:42';98360;;;8;54
30343;BME280;17145;49.902;8.680;'2023-03-14 14:35:16';98370;;;8;54
30343;BME280;17145;49.902;8.680;'2023-03-14 14:37:43';98400;;;7;55
30343;BME280;17145;49.902;8.680;'2023-03-14 14:40:21';98400;;;7;55
30343;BME280;17145;49.902;8.680;'2023-03-14 14:42:48';98410;;;7;54
30343;BME280;17145;49.902;8.680;'2023-03-14 14:45:16';98420;;;7;54
30343;BME280;17145;49.902;8.680;'2023-03-14 14:47:43';98440;;;7;55
30343;BME280;17145;49.902;8.680;'2023-03-14 14:50:16';98440;;;8;56
30343;BME280;17145;49.902;8.680;'2023-03-14 14:52:44';98440;;;7;56
30343;BME280;17145;49.902;8.680;'2023-03-14 14:55:16';98450;;;7;57
30343;BME280;17145;49.902;8.680;'2023-03-14 14:57:46';98450;;;7;57
30343;BME280;17145;49.902;8.680;'2023-03-14 15:00:20';98460;;;7;57
30343;BME280;17145;49.902;8.680;'2023-03-14 15:02:48';98470;;;7;57
30343;BME280;17145;49.902;8.680;'2023-03-14 15:05:16';98490;;;7;57
30343;BME280;17145;49.902;8.680;'2023-03-14 15:07:44';98500;;;7;56
30343;BME280;17145;49.902;8.680;'2023-03-14 15:10:13';98500;;;7;56
30343;BME280;17145;49.902;8.680;'2023-03-14 15:12:46';98520;;;7;55
30343;BME280;17145;49.902;8.680;'2023-03-14 15:15:18';98520;;;8;54
30343;BME280;17145;49.902;8.680;'2023-03-14 15:17:49';98520;;;9;52
30343;BME280;17145;49.902;8.680;'2023-03-14 15:20:23';98520;;;10;48
30343;BME280;17145;49.902;8.680;'2023-03-14 15:22:52';98530;;;10;45
30343;BME280;17145;49.902;8.680;'2023-03-14 15:25:20';98540;;;12;43
30343;BME280;17145;49.902;8.680;'2023-03-14 15:27:49';98530;;;13;39
30343;BME280;17145;49.902;8.680;'2023-03-14 15:30:30';98550;;;12;40
30343;BME280;17145;49.902;8.680;'2023-03-14 15:33:11';98560;;;12;40
30343;BME280;17145;49.902;8.680;'2023-03-14 15:35:39';98560;;;11;41
30343;BME280;17145;49.902;8.680;'2023-03-14 15:38:16';98590;;;11;40
30343;BME280;17145;49.902;8.680;'2023-03-14 15:40:46';98590;;;10;41
30343;BME280;17145;49.902;8.680;'2023-03-14 15:43:18';98590;;;9;43
30343;BME280;17145;49.902;8.680;'2023-03-14 15:45:49';98610;;;9;44
30343;BME280;17145;49.902;8.680;'2023-03-14 15:48:20';98630;;;8;45